createdAt,value
2023-05-14T00:00:29.708Z,-53
2023-05-14T00:02:57.944Z,-49
2023-05-14T00:05:26.672Z,-55
2023-05-14T00:07:56.135Z,-53
2023-05-14T00:10:24.358Z,-54
2023-05-14T00:12:52.927Z,-56
2023-05-14T00:15:21.095Z,-55
2023-05-14T00:17:49.387Z,-55
2023-05-14T00:20:17.599Z,-56
2023-05-14T00:22:45.767Z,-56
2023-05-14T00:25:15.222Z,-55
2023-05-14T00:27:43.342Z,-56
2023-05-14T00:30:12.546Z,-54
2023-05-14T00:32:40.739Z,-55
2023-05-14T00:35:10.054Z,-56
2023-05-14T00:37:38.321Z,-54
2023-05-14T00:40:08.659Z,-55
2023-05-14T00:42:38.267Z,-55
2023-05-14T00:45:08.421Z,-54
2023-05-14T00:47:39.234Z,-54
2023-05-14T00:50:09.534Z,-52
2023-05-14T00:52:39.152Z,-53
2023-05-14T00:55:09.366Z,-55
2023-05-14T00:57:39.440Z,-52
2023-05-14T01:00:10.178Z,-54
2023-05-14T01:02:38.465Z,-56
2023-05-14T01:05:08.305Z,-54
2023-05-14T01:07:50.402Z,-55
2023-05-14T01:10:28.810Z,-52
2023-05-14T01:13:14.205Z,-55
2023-05-14T01:15:45.631Z,-55
2023-05-14T01:18:19.844Z,-57
2023-05-14T01:20:51.432Z,-54
2023-05-14T01:23:21.141Z,-52
2023-05-14T01:25:49.259Z,-52
2023-05-14T01:28:20.470Z,-53
2023-05-14T01:30:58.152Z,-54
2023-05-14T01:33:30.425Z,-54
2023-05-14T01:35:58.848Z,-54
2023-05-14T01:38:31.636Z,-54
2023-05-14T01:41:01.735Z,-54
2023-05-14T01:43:31.290Z,-54
2023-05-14T01:45:59.853Z,-53
2023-05-14T01:48:29.851Z,-54
2023-05-14T01:50:58.063Z,-56
2023-05-14T01:53:27.807Z,-55
2023-05-14T01:55:55.954Z,-52
2023-05-14T01:58:24.053Z,-55
2023-05-14T02:00:52.170Z,-54
2023-05-14T02:03:20.265Z,-53
2023-05-14T02:05:48.389Z,-54
2023-05-14T02:08:16.562Z,-53
2023-05-14T02:10:46.009Z,-52
2023-05-14T02:13:14.087Z,-53
2023-05-14T02:15:42.228Z,-55
2023-05-14T02:18:10.699Z,-53
2023-05-14T02:20:39.144Z,-55
2023-05-14T02:23:07.249Z,-55
2023-05-14T02:25:36.261Z,-55
2023-05-14T02:28:06.072Z,-51
2023-05-14T02:30:34.184Z,-52
2023-05-14T02:33:02.390Z,-56
2023-05-14T02:35:30.666Z,-53
2023-05-14T02:37:59.497Z,-52
2023-05-14T02:40:27.642Z,-54
2023-05-14T02:42:55.738Z,-53
2023-05-14T02:45:25.184Z,-54
2023-05-14T02:47:53.410Z,-56
2023-05-14T02:50:21.830Z,-54
2023-05-14T02:52:50.110Z,-53
2023-05-14T02:55:18.464Z,-54
2023-05-14T02:57:46.689Z,-54
2023-05-14T03:00:15.654Z,-54
2023-05-14T03:02:45.923Z,-53
2023-05-14T03:05:14.417Z,-53
2023-05-14T03:07:42.561Z,-54
2023-05-14T03:10:12.128Z,-51
2023-05-14T03:12:40.293Z,-53
2023-05-14T03:15:10.031Z,-54
2023-05-14T03:17:38.277Z,-52
2023-05-14T03:20:09.254Z,-52
2023-05-14T03:22:37.556Z,-53
2023-05-14T03:25:06.588Z,-54
2023-05-14T03:27:34.713Z,-55
2023-05-14T03:30:02.834Z,-53
2023-05-14T03:32:31.604Z,-54
2023-05-14T03:34:59.752Z,-54
2023-05-14T03:37:29.337Z,-54
2023-05-14T03:39:57.474Z,-56
2023-05-14T03:42:25.602Z,-52
2023-05-14T03:44:53.813Z,-55
2023-05-14T03:47:22.006Z,-55
2023-05-14T03:49:50.232Z,-54
2023-05-14T03:52:20.730Z,-55
2023-05-14T03:54:50.296Z,-54
2023-05-14T03:57:18.398Z,-53
2023-05-14T03:59:46.519Z,-55
2023-05-14T04:02:14.675Z,-54
2023-05-14T04:04:42.885Z,-55
2023-05-14T04:07:11.124Z,-50
2023-05-14T04:09:39.220Z,-54
2023-05-14T04:12:10.489Z,-54
2023-05-14T04:14:38.627Z,-55
2023-05-14T04:17:06.760Z,-54
2023-05-14T04:19:34.869Z,-53
2023-05-14T04:22:02.965Z,-53
2023-05-14T04:24:31.007Z,-56
2023-05-14T04:26:59.116Z,-53
2023-05-14T04:29:28.559Z,-54
2023-05-14T04:31:56.787Z,-54
2023-05-14T04:34:24.945Z,-51
2023-05-14T04:36:53.056Z,-54
2023-05-14T04:39:21.168Z,-58
2023-05-14T04:41:49.293Z,-54
2023-05-14T04:44:17.388Z,-53
2023-05-14T04:46:46.861Z,-52
2023-05-14T04:49:15.023Z,-55
2023-05-14T04:51:43.130Z,-56
2023-05-14T04:54:11.262Z,-52
2023-05-14T04:56:39.384Z,-56
2023-05-14T04:59:07.803Z,-54
2023-05-14T05:01:36.201Z,-55
2023-05-14T05:04:06.114Z,-54
2023-05-14T05:06:34.282Z,-55
2023-05-14T05:09:02.641Z,-53
2023-05-14T05:11:30.795Z,-54
2023-05-14T05:13:58.880Z,-53
2023-05-14T05:16:27.458Z,-53
2023-05-14T05:18:55.709Z,-53
2023-05-14T05:21:25.440Z,-54
2023-05-14T05:23:53.563Z,-52
2023-05-14T05:26:22.247Z,-54
2023-05-14T05:28:50.359Z,-55
2023-05-14T05:31:19.981Z,-55
2023-05-14T05:33:48.757Z,-53
2023-05-14T05:36:17.083Z,-54
2023-05-14T05:38:46.559Z,-55
2023-05-14T05:41:14.701Z,-54
2023-05-14T05:43:42.842Z,-53
2023-05-14T05:46:11.050Z,-52
2023-05-14T05:48:39.254Z,-55
2023-05-14T05:51:07.502Z,-54
2023-05-14T05:53:35.607Z,-56
2023-05-14T05:56:06.335Z,-55
2023-05-14T05:58:34.750Z,-55
2023-05-14T06:01:02.907Z,-51
2023-05-14T06:03:31.124Z,-55
2023-05-14T06:05:59.237Z,-50
2023-05-14T06:08:27.648Z,-55
2023-05-14T06:10:55.831Z,-55
2023-05-14T06:13:25.474Z,-52
2023-05-14T06:15:53.606Z,-55
2023-05-14T06:18:21.726Z,-54
2023-05-14T06:20:49.831Z,-56
2023-05-14T06:23:17.927Z,-55
2023-05-14T06:25:46.062Z,-56
2023-05-14T06:28:14.167Z,-54
2023-05-14T06:30:43.918Z,-54
2023-05-14T06:33:13.182Z,-55
2023-05-14T06:35:41.309Z,-55
2023-05-14T06:38:09.420Z,-54
2023-05-14T06:40:37.514Z,-55
2023-05-14T06:43:06.614Z,-56
2023-05-14T06:45:34.791Z,-55
2023-05-14T06:48:05.469Z,-54
2023-05-14T06:50:33.664Z,-54
2023-05-14T06:53:01.799Z,-56
2023-05-14T06:55:29.961Z,-54
2023-05-14T06:57:58.089Z,-56
2023-05-14T07:00:26.730Z,-56
2023-05-14T07:02:54.996Z,-54
2023-05-14T07:05:26.072Z,-54
2023-05-14T07:07:54.168Z,-73
2023-05-14T07:10:22.915Z,-74
2023-05-14T07:12:51.258Z,-75
2023-05-14T07:15:19.546Z,-75
2023-05-14T07:17:47.700Z,-77
2023-05-14T07:20:15.897Z,-75
2023-05-14T07:22:45.438Z,-79
2023-05-14T07:25:14.270Z,-77
2023-05-14T07:27:42.417Z,-77
2023-05-14T07:30:11.434Z,-76
2023-05-14T07:32:39.614Z,-75
2023-05-14T07:35:09.021Z,-72
2023-05-14T07:37:37.244Z,-76
2023-05-14T07:40:08.504Z,-76
2023-05-14T07:42:37.457Z,-76
2023-05-14T07:45:06.684Z,-76
2023-05-14T07:47:35.240Z,-72
2023-05-14T07:50:03.657Z,-73
2023-05-14T07:52:31.809Z,-74
2023-05-14T07:55:01.221Z,-74
2023-05-14T07:57:31.997Z,-73
2023-05-14T08:00:00.170Z,-73
2023-05-14T08:02:28.545Z,-75
2023-05-14T08:04:56.766Z,-74
2023-05-14T08:07:24.887Z,-73
2023-05-14T08:09:53.026Z,-73
2023-05-14T08:12:21.188Z,-74
2023-05-14T08:14:50.674Z,-74
2023-05-14T08:17:18.942Z,-74
2023-05-14T08:19:47.177Z,-73
2023-05-14T08:22:15.390Z,-75
2023-05-14T08:24:43.786Z,-74
2023-05-14T08:27:11.988Z,-73
2023-05-14T08:29:40.085Z,-73
2023-05-14T08:32:21.963Z,-72
2023-05-14T08:34:51.637Z,-74
2023-05-14T08:37:20.267Z,-72
2023-05-14T08:39:48.442Z,-72
2023-05-14T08:42:22.036Z,-73
2023-05-14T08:44:54.219Z,-74
2023-05-14T08:47:24.735Z,-73
2023-05-14T08:50:04.203Z,-74
2023-05-14T08:52:32.525Z,-73
2023-05-14T08:55:05.235Z,-72
2023-05-14T08:57:34.554Z,-73
2023-05-14T09:00:08.194Z,-72
2023-05-14T09:02:40.329Z,-73
2023-05-14T09:05:10.243Z,-73
2023-05-14T09:07:38.395Z,-73
2023-05-14T09:10:09.060Z,-72
2023-05-14T09:12:37.306Z,-73
2023-05-14T09:15:07.122Z,-73
2023-05-14T09:17:37.150Z,-73
2023-05-14T09:20:07.800Z,-76
2023-05-14T09:22:36.461Z,-73
2023-05-14T09:25:09.258Z,-73
2023-05-14T09:27:37.795Z,-72
2023-05-14T09:30:11.489Z,-74
2023-05-14T09:32:44.422Z,-73
2023-05-14T09:35:18.547Z,-73
2023-05-14T09:37:48.919Z,-74
2023-05-14T09:40:19.642Z,-73
2023-05-14T09:42:49.208Z,-74
2023-05-14T09:45:18.386Z,-74
2023-05-14T09:47:48.136Z,-74
2023-05-14T09:50:16.340Z,-74
2023-05-14T09:52:44.533Z,-76
2023-05-14T09:55:12.691Z,-75
2023-05-14T09:57:40.889Z,-75
2023-05-14T10:00:12.667Z,-70
2023-05-14T10:02:43.818Z,-75
2023-05-14T10:05:15.817Z,-76
2023-05-14T10:07:49.095Z,-75
2023-05-14T10:10:20.583Z,-73
2023-05-14T10:12:58.041Z,-75
2023-05-14T10:15:43.912Z,-75
2023-05-14T10:18:17.279Z,-74
2023-05-14T10:20:50.083Z,-76
2023-05-14T10:23:18.776Z,-75
2023-05-14T10:25:47.554Z,-75
2023-05-14T10:28:16.059Z,-74
2023-05-14T10:30:46.960Z,-74
2023-05-14T10:33:18.462Z,-74
2023-05-14T10:36:02.302Z,-74
2023-05-14T10:38:31.539Z,-75
2023-05-14T10:41:05.028Z,-75
2023-05-14T10:43:38.795Z,-77
2023-05-14T10:46:08.376Z,-73
2023-05-14T10:48:38.536Z,-77
2023-05-14T10:51:09.660Z,-74
2023-05-14T10:53:40.609Z,-75
2023-05-14T10:56:11.181Z,-74
2023-05-14T10:58:41.344Z,-76
2023-05-14T11:01:11.955Z,-75
2023-05-14T11:03:43.282Z,-76
2023-05-14T11:06:14.914Z,-76
2023-05-14T11:08:43.851Z,-74
2023-05-14T11:11:12.269Z,-74
2023-05-14T11:13:40.691Z,-75
2023-05-14T11:18:41.966Z,-75
2023-05-14T11:21:10.379Z,-73
2023-05-14T11:23:39.931Z,-74
2023-05-14T11:26:08.878Z,-75
2023-05-14T11:28:37.174Z,-75
2023-05-14T11:31:05.741Z,-73
2023-05-14T11:33:33.888Z,-74
2023-05-14T11:36:02.341Z,-73
2023-05-14T11:38:30.455Z,-74
2023-05-14T11:41:00.772Z,-75
2023-05-14T11:43:29.589Z,-75
2023-05-14T11:45:58.206Z,-73
2023-05-14T11:48:26.361Z,-73
2023-05-14T11:50:54.578Z,-75
2023-05-14T11:53:27.663Z,-73
2023-05-14T11:55:57.796Z,-75
2023-05-14T11:58:27.838Z,-73
2023-05-14T12:00:57.209Z,-74
2023-05-14T12:03:26.887Z,-75
2023-05-14T12:05:59.059Z,-74
2023-05-14T12:08:29.924Z,-73
2023-05-14T12:11:00.801Z,-76
2023-05-14T12:13:32.365Z,-73
2023-05-14T12:16:03.281Z,-74
2023-05-14T12:18:33.301Z,-74
2023-05-14T12:21:04.479Z,-74
2023-05-14T12:23:33.967Z,-74
2023-05-14T12:26:07.558Z,-73
2023-05-14T12:28:43.210Z,-74
2023-05-14T12:31:11.677Z,-73
2023-05-14T12:33:39.907Z,-73
2023-05-14T12:36:21.405Z,-72
2023-05-14T12:38:51.315Z,-74
2023-05-14T12:41:19.632Z,-72
2023-05-14T12:43:50.219Z,-73
2023-05-14T12:46:18.700Z,-74
2023-05-14T12:48:47.187Z,-74
2023-05-14T12:51:15.714Z,-73
2023-05-14T12:53:43.844Z,-72
2023-05-14T12:56:12.285Z,-72
2023-05-14T12:58:40.838Z,-74
2023-05-14T13:01:10.433Z,-72
2023-05-14T13:03:38.572Z,-73
2023-05-14T13:06:07.100Z,-74
2023-05-14T13:08:36.167Z,-72
2023-05-14T13:11:04.301Z,-72
2023-05-14T13:13:32.419Z,-74
2023-05-14T13:16:00.910Z,-73
2023-05-14T13:18:30.480Z,-74
2023-05-14T13:20:58.613Z,-74
2023-05-14T13:23:26.737Z,-73
2023-05-14T13:25:54.859Z,-74
2023-05-14T13:28:22.996Z,-74
2023-05-14T13:31:08.044Z,-73
2023-05-14T13:33:39.759Z,-72
2023-05-14T13:36:09.643Z,-73
2023-05-14T13:38:38.001Z,-72
2023-05-14T13:41:06.809Z,-73
2023-05-14T13:43:36.941Z,-75
2023-05-14T13:46:07.003Z,-73
2023-05-14T13:48:37.336Z,-73
2023-05-14T13:51:05.533Z,-73
2023-05-14T13:53:33.625Z,-72
2023-05-14T13:56:01.817Z,-72
2023-05-14T13:58:30.102Z,-73
2023-05-14T14:00:58.226Z,-73
2023-05-14T14:03:26.534Z,-72
2023-05-14T14:05:56.033Z,-73
2023-05-14T14:08:24.673Z,-73
2023-05-14T14:10:55.151Z,-72
2023-05-14T14:13:24.330Z,-73
2023-05-14T14:15:52.586Z,-74
2023-05-14T14:18:20.859Z,-76
2023-05-14T14:20:49.202Z,-72
2023-05-14T14:23:18.724Z,-74
2023-05-14T14:25:46.817Z,-72
2023-05-14T14:28:14.924Z,-72
2023-05-14T14:30:43.777Z,-73
2023-05-14T14:33:12.389Z,-74
2023-05-14T14:35:40.582Z,-72
2023-05-14T14:38:08.729Z,-75
2023-05-14T14:40:38.251Z,-74
2023-05-14T14:43:06.466Z,-75
2023-05-14T14:45:34.634Z,-75
2023-05-14T14:48:28.106Z,-75
2023-05-14T14:50:56.804Z,-75
2023-05-14T14:53:26.030Z,-76
2023-05-14T14:55:55.663Z,-73
2023-05-14T14:58:24.370Z,-76
2023-05-14T15:00:54.957Z,-75
2023-05-14T15:03:23.906Z,-75
2023-05-14T15:05:53.348Z,-76
2023-05-14T15:08:23.640Z,-74
2023-05-14T15:10:52.068Z,-73
2023-05-14T15:13:21.614Z,-73
2023-05-14T15:15:51.515Z,-75
2023-05-14T15:18:20.146Z,-75
2023-05-14T15:20:48.481Z,-76
2023-05-14T15:23:16.607Z,-75
2023-05-14T15:25:44.952Z,-73
2023-05-14T15:28:13.090Z,-75
2023-05-14T15:30:42.668Z,-74
2023-05-14T15:33:11.517Z,-75
2023-05-14T15:35:39.686Z,-74
2023-05-14T15:38:08.345Z,-75
2023-05-14T15:40:36.528Z,-72
2023-05-14T15:43:04.680Z,-72
2023-05-14T15:45:32.929Z,-71
2023-05-14T15:48:02.483Z,-70
2023-05-14T15:50:30.814Z,-71
2023-05-14T15:52:59.033Z,-72
2023-05-14T15:55:27.136Z,-71
2023-05-14T15:57:55.237Z,-71
2023-05-14T16:00:24.654Z,-73
2023-05-14T16:02:53.326Z,-73
2023-05-14T16:05:23.015Z,-73
2023-05-14T16:07:51.242Z,-71
2023-05-14T16:10:21.188Z,-74
2023-05-14T16:12:49.374Z,-73
2023-05-14T16:15:18.025Z,-72
2023-05-14T16:17:46.193Z,-73
2023-05-14T16:20:14.474Z,-72
2023-05-14T16:22:44.683Z,-73
2023-05-14T16:25:12.788Z,-72
2023-05-14T16:27:40.927Z,-74
2023-05-14T16:30:10.734Z,-72
2023-05-14T16:32:38.916Z,-72
2023-05-14T16:35:07.591Z,-72
2023-05-14T16:37:35.815Z,-71
2023-05-14T16:40:06.244Z,-72
2023-05-14T16:42:34.519Z,-72
2023-05-14T16:45:02.638Z,-70
2023-05-14T16:47:30.828Z,-71
2023-05-14T16:49:58.966Z,-71
2023-05-14T16:52:27.092Z,-70
2023-05-14T16:54:55.217Z,-70
2023-05-14T16:57:25.513Z,-71
2023-05-14T16:59:53.977Z,-71
2023-05-14T17:02:22.205Z,-72
2023-05-14T17:04:50.411Z,-71
2023-05-14T17:07:18.692Z,-72
2023-05-14T17:09:46.782Z,-72
2023-05-14T17:12:14.844Z,-72
2023-05-14T17:14:44.294Z,-70
2023-05-14T17:17:12.410Z,-71
2023-05-14T17:19:40.754Z,-74
2023-05-14T17:22:08.917Z,-72
2023-05-14T17:24:38.942Z,-71
2023-05-14T17:27:07.444Z,-72
2023-05-14T17:29:35.617Z,-73
2023-05-14T17:32:05.958Z,-74
2023-05-14T17:34:34.158Z,-71
2023-05-14T17:37:02.279Z,-71
2023-05-14T17:39:30.444Z,-72
2023-05-14T17:41:58.528Z,-73
2023-05-14T17:44:26.657Z,-72
2023-05-14T17:46:54.842Z,-71
2023-05-14T17:49:24.363Z,-73
2023-05-14T17:51:52.619Z,-73
2023-05-14T17:54:20.719Z,-70
2023-05-14T17:56:50.879Z,-70
2023-05-14T17:59:19.398Z,-70
2023-05-14T18:01:48.007Z,-70
2023-05-14T18:04:16.162Z,-70
2023-05-14T18:06:45.963Z,-70
2023-05-14T18:09:14.501Z,-70
2023-05-14T18:11:42.731Z,-72
2023-05-14T18:14:10.885Z,-71
2023-05-14T18:16:39.043Z,-73
2023-05-14T18:19:07.294Z,-71
2023-05-14T18:21:35.399Z,-71
2023-05-14T18:24:05.349Z,-71
2023-05-14T18:26:34.346Z,-70
2023-05-14T18:29:02.657Z,-71
2023-05-14T18:31:31.035Z,-71
2023-05-14T18:33:59.234Z,-74
2023-05-14T18:36:27.337Z,-74
2023-05-14T18:38:55.501Z,-68
2023-05-14T18:41:24.978Z,-69
2023-05-14T18:43:53.081Z,-70
2023-05-14T18:46:21.423Z,-69
2023-05-14T18:48:49.574Z,-69
2023-05-14T18:51:17.745Z,-67
2023-05-14T18:53:45.884Z,-68
2023-05-14T18:56:14.050Z,-74
2023-05-14T18:58:43.633Z,-73
2023-05-14T19:01:11.777Z,-73
2023-05-14T19:03:41.549Z,-66
2023-05-14T19:06:09.924Z,-68
2023-05-14T19:08:38.156Z,-67
2023-05-14T19:11:06.320Z,-70
2023-05-14T19:13:34.538Z,-70
2023-05-14T19:16:04.136Z,-69
2023-05-14T19:18:32.417Z,-71
2023-05-14T19:21:00.579Z,-71
2023-05-14T19:23:30.944Z,-76
2023-05-14T19:25:59.292Z,-76
2023-05-14T19:28:27.530Z,-75
2023-05-14T19:30:57.190Z,-76
2023-05-14T19:33:27.627Z,-72
2023-05-14T19:35:56.767Z,-71
2023-05-14T19:38:24.909Z,-68
2023-05-14T19:40:56.744Z,-67
2023-05-14T19:43:25.432Z,-66
2023-05-14T19:45:53.761Z,-74
2023-05-14T19:48:21.864Z,-73
2023-05-14T19:50:51.855Z,-73
2023-05-14T19:53:19.967Z,-74
2023-05-14T19:55:48.164Z,-75
2023-05-14T19:58:16.496Z,-74
2023-05-14T20:00:44.645Z,-74
2023-05-14T20:03:13.479Z,-66
2023-05-14T20:05:41.777Z,-69
2023-05-14T20:08:11.645Z,-68
2023-05-14T20:10:41.354Z,-69
2023-05-14T20:13:09.626Z,-68
2023-05-14T20:15:37.814Z,-69
2023-05-14T20:18:06.343Z,-77
2023-05-14T20:20:34.862Z,-76
2023-05-14T20:23:03.481Z,-76
2023-05-14T20:25:33.574Z,-77
2023-05-14T20:28:01.856Z,-77
2023-05-14T20:30:30.018Z,-78
2023-05-14T20:32:58.541Z,-75
2023-05-14T20:35:27.077Z,-79
2023-05-14T20:37:56.201Z,-75
2023-05-14T20:40:24.764Z,-77
2023-05-14T20:42:54.332Z,-71
2023-05-14T20:45:22.489Z,-71
2023-05-14T20:47:50.852Z,-73
2023-05-14T20:50:19.348Z,-73
2023-05-14T20:52:47.423Z,-71
2023-05-14T20:55:15.984Z,-69
2023-05-14T20:57:44.120Z,-69
2023-05-14T21:00:15.263Z,-69
2023-05-14T21:02:43.587Z,-76
2023-05-14T21:05:11.916Z,-76
2023-05-14T21:07:40.384Z,-75
2023-05-14T21:10:10.618Z,-77
2023-05-14T21:12:38.725Z,-77
2023-05-14T21:15:08.392Z,-77
2023-05-14T21:17:37.926Z,-73
2023-05-14T21:20:07.528Z,-72
2023-05-14T21:22:35.626Z,-70
2023-05-14T21:25:03.845Z,-72
2023-05-14T21:27:32.073Z,-72
2023-05-14T21:30:00.238Z,-71
2023-05-14T21:32:28.380Z,-70
2023-05-14T21:34:57.871Z,-70
2023-05-14T21:37:26.025Z,-70
2023-05-14T21:39:54.174Z,-70
2023-05-14T21:42:22.300Z,-72
2023-05-14T21:44:50.428Z,-74
2023-05-14T21:47:19.796Z,-73
2023-05-14T21:49:47.913Z,-70
2023-05-14T21:52:17.370Z,-71
2023-05-14T21:54:45.530Z,-72
2023-05-14T21:57:13.693Z,-74
2023-05-14T21:59:41.924Z,-54
2023-05-14T22:02:10.079Z,-55
2023-05-14T22:04:38.265Z,-52
2023-05-14T22:07:06.505Z,-54
2023-05-14T22:09:36.030Z,-55
2023-05-14T22:12:04.915Z,-55
2023-05-14T22:14:33.065Z,-54
2023-05-14T22:17:01.238Z,-55
2023-05-14T22:19:29.921Z,-56
2023-05-14T22:21:58.672Z,-55
2023-05-14T22:24:27.150Z,-57
2023-05-14T22:26:56.646Z,-53
2023-05-14T22:29:24.750Z,-53
2023-05-14T22:31:53.015Z,-55
2023-05-14T22:34:21.153Z,-54
2023-05-14T22:36:49.319Z,-53
2023-05-14T22:39:17.389Z,-52
2023-05-14T22:41:45.827Z,-54
2023-05-14T22:44:15.785Z,-55
2023-05-14T22:46:43.965Z,-55
2023-05-14T22:49:12.167Z,-56
2023-05-14T22:51:40.287Z,-55
2023-05-14T22:54:08.499Z,-55
2023-05-14T22:56:37.656Z,-56
2023-05-14T22:59:05.992Z,-55
2023-05-14T23:01:35.477Z,-54
2023-05-14T23:04:03.601Z,-55
2023-05-14T23:06:32.431Z,-57
2023-05-14T23:09:00.579Z,-55
2023-05-14T23:11:28.941Z,-53
2023-05-14T23:13:57.056Z,-55
2023-05-14T23:16:25.939Z,-54
2023-05-14T23:18:55.720Z,-55
2023-05-14T23:21:23.995Z,-55
2023-05-14T23:23:52.076Z,-54
2023-05-14T23:26:21.455Z,-55
2023-05-14T23:28:49.558Z,-55
2023-05-14T23:31:17.752Z,-54
2023-05-14T23:33:46.585Z,-55
2023-05-14T23:36:16.380Z,-55
2023-05-14T23:38:44.706Z,-55
2023-05-14T23:41:12.860Z,-54
2023-05-14T23:43:40.968Z,-53
2023-05-14T23:46:09.186Z,-57
2023-05-14T23:48:37.321Z,-53
2023-05-14T23:51:05.565Z,-56
2023-05-14T23:53:35.288Z,-53
2023-05-14T23:56:03.433Z,-56
2023-05-14T23:58:32.897Z,-54
